Arnots Addition, Pennsylvania
Current Conditions -  °F | °C
As of 11:55 PM on Friday 31 Oct 2014 (Local Time) from KHZL Reporting Station
Overcast Overcast  
Wind Chill: 43°   Ceiling: 5000
Heat Index: 43°   Visibility: 10mi
Dew Point: 34°   Wind: 0mph
Humidity: 70%   Direction: NA
Pressure: 29.89"   Gusts: NA
Location:  40.7406°N, 76.2241°W
Report Text: KHZL 010355Z AUTO 00000KT 10SM SCT041 OVC050 06/01 A2989 RMK AO2
Loading
Personal Weather Stations






























Interactive Weather Map
Tropical Storm Tracking
New forecast layout! Learn more

10-Day Weather Forecast

Advertisements
Track Severe Weather on mobile